Time;durP1;ratioP1;P1;durP2;ratioP2;P2;SDS_P1;SDS_P2;PMS_P1;PMS_P2;Temp;Humidity;BMP_temperature;BMP_pressure;BME280_temperature;BME280_humidity;BME280_pressure;Samples;Min_cycle;Max_cycle;Signal;HPM_P1;HPM_P2
2022/09/03 00:00:36;;;;;;;2.90;1.83;;;;;;;;;;4946090;29;20066;-60
2022/09/03 00:03:17;;;;;;;5.88;2.20;;;;;;;;;;4951944;29;20067;-61
2022/09/03 00:05:47;;;;;;;2.58;1.90;;;;;;;;;;4945301;29;20043;-60
2022/09/03 00:08:24;;;;;;;3.53;2.10;;;;;;;;;;4983971;28;20043;-60
2022/09/03 00:10:54;;;;;;;5.43;1.83;;;;;;;;;;4992619;28;20037;-61
2022/09/03 00:13:27;;;;;;;4.22;2.10;;;;;;;;;;4990099;28;20386;-60
2022/09/03 00:15:55;;;;;;;3.25;1.88;;;;;;;;;;4994379;28;20491;-61
2022/09/03 00:18:27;;;;;;;2.92;1.95;;;;;;;;;;4993878;28;20041;-61
2022/09/03 00:21:07;;;;;;;3.47;1.90;;;;;;;;;;4993403;28;20041;-61
2022/09/03 00:23:39;;;;;;;3.60;1.90;;;;;;;;;;4982568;28;20085;-61
2022/09/03 00:26:11;;;;;;;6.47;1.98;;;;;;;;;;4993703;28;20038;-62
2022/09/03 00:29:10;;;;;;;3.33;2.10;;;;;;;;;;4994485;28;20116;-62
2022/09/03 00:31:42;;;;;;;3.15;1.80;;;;;;;;;;4992423;28;20049;-62
2022/09/03 00:34:22;;;;;;;4.68;2.00;;;;;;;;;;4992790;28;20038;-61
2022/09/03 00:36:48;;;;;;;3.70;1.88;;;;;;;;;;4993165;28;20037;-62
2022/09/03 00:39:20;;;;;;;3.30;2.00;;;;;;;;;;4993856;28;20041;-62
2022/09/03 00:42:19;;;;;;;3.33;1.90;;;;;;;;;;4992740;28;20085;-61
2022/09/03 00:45:07;;;;;;;4.95;2.03;;;;;;;;;;4990589;28;20031;-61
2022/09/03 00:47:56;;;;;;;3.40;1.92;;;;;;;;;;4979432;28;20113;-61
2022/09/03 00:50:29;;;;;;;3.85;1.90;;;;;;;;;;4993525;28;20407;-61
2022/09/03 00:53:06;;;;;;;4.10;1.90;;;;;;;;;;4993684;28;20036;-61
2022/09/03 00:56:22;;;;;;;3.35;2.13;;;;;;;;;;4992857;28;20034;-61
2022/09/03 00:59:01;;;;;;;2.92;2.00;;;;;;;;;;4951139;29;20077;-60
2022/09/03 01:01:54;;;;;;;3.75;1.90;;;;;;;;;;4990721;28;20058;-65
2022/09/03 01:04:28;;;;;;;2.05;1.83;;;;;;;;;;4967008;28;20052;-61
2022/09/03 01:07:05;;;;;;;4.30;2.08;;;;;;;;;;4994012;28;20038;-60
2022/09/03 01:09:47;;;;;;;4.10;1.95;;;;;;;;;;4992165;28;20379;-61
2022/09/03 01:12:39;;;;;;;3.30;2.10;;;;;;;;;;4993311;28;20038;-61
2022/09/03 01:15:43;;;;;;;3.67;2.03;;;;;;;;;;4992733;28;20038;-61
2022/09/03 01:18:14;;;;;;;5.55;2.20;;;;;;;;;;4991022;28;20030;-62
2022/09/03 01:20:50;;;;;;;4.80;2.10;;;;;;;;;;4993926;28;20038;-61
2022/09/03 01:23:53;;;;;;;5.30;2.03;;;;;;;;;;4990203;28;20482;-61
2022/09/03 01:26:30;;;;;;;4.00;2.20;;;;;;;;;;4980942;28;20089;-61
2022/09/03 01:29:27;;;;;;;4.50;2.30;;;;;;;;;;4992479;28;20042;-61
2022/09/03 01:32:14;;;;;;;4.57;2.13;;;;;;;;;;4975468;28;20054;-61
2022/09/03 01:34:52;;;;;;;4.00;2.20;;;;;;;;;;4990665;28;20395;-61
2022/09/03 01:37:50;;;;;;;5.22;2.30;;;;;;;;;;4992057;28;20117;-61
2022/09/03 01:40:37;;;;;;;5.50;2.50;;;;;;;;;;4983347;28;20085;-61
2022/09/03 01:43:50;;;;;;;3.47;2.30;;;;;;;;;;4991397;28;20088;-61
2022/09/03 01:46:24;;;;;;;3.47;2.20;;;;;;;;;;4966528;28;20046;-61
2022/09/03 01:49:05;;;;;;;4.45;2.45;;;;;;;;;;4989486;28;20040;-61
2022/09/03 01:51:31;;;;;;;3.95;2.40;;;;;;;;;;4989636;28;20467;-62
2022/09/03 01:54:25;;;;;;;3.85;2.28;;;;;;;;;;4992838;28;20044;-61
2022/09/03 01:57:13;;;;;;;4.05;2.30;;;;;;;;;;4996617;28;20030;-61
2022/09/03 01:59:51;;;;;;;5.35;2.65;;;;;;;;;;4991698;28;20058;-60
2022/09/03 02:02:21;;;;;;;2.30;2.00;;;;;;;;;;4988063;28;20562;-60
2022/09/03 02:05:08;;;;;;;3.25;2.08;;;;;;;;;;4994125;28;20036;-60
2022/09/03 02:07:42;;;;;;;4.07;2.20;;;;;;;;;;4989341;28;20026;-62
2022/09/03 02:10:15;;;;;;;2.95;2.10;;;;;;;;;;4992166;28;20068;-60
2022/09/03 02:12:47;;;;;;;5.53;2.63;;;;;;;;;;4988972;28;20038;-60
2022/09/03 02:15:17;;;;;;;4.18;2.40;;;;;;;;;;4991005;28;20455;-61
2022/09/03 02:17:45;;;;;;;7.32;2.40;;;;;;;;;;4990090;28;20042;-62
2022/09/03 02:20:20;;;;;;;3.45;2.20;;;;;;;;;;4991828;28;20036;-62
2022/09/03 02:22:47;;;;;;;5.25;2.00;;;;;;;;;;4989750;28;20076;-62
2022/09/03 02:25:13;;;;;;;3.60;2.17;;;;;;;;;;4991704;28;20126;-62
2022/09/03 02:27:40;;;;;;;9.93;2.63;;;;;;;;;;4990436;28;20050;-61
2022/09/03 02:30:06;;;;;;;4.55;2.40;;;;;;;;;;4992638;28;20037;-62
2022/09/03 02:32:32;;;;;;;4.80;2.30;;;;;;;;;;4987680;28;20510;-61
2022/09/03 02:34:57;;;;;;;4.45;2.20;;;;;;;;;;4989874;28;20038;-61
2022/09/03 02:37:23;;;;;;;4.72;2.20;;;;;;;;;;4989104;28;20446;-60
2022/09/03 02:39:50;;;;;;;4.53;2.30;;;;;;;;;;4992344;28;20030;-62
2022/09/03 02:42:17;;;;;;;6.90;2.30;;;;;;;;;;4990191;28;20049;-61
2022/09/03 02:44:49;;;;;;;5.15;2.55;;;;;;;;;;4990515;28;20030;-62
2022/09/03 02:47:14;;;;;;;4.35;2.60;;;;;;;;;;4991514;28;20038;-61
2022/09/03 02:49:40;;;;;;;4.32;2.28;;;;;;;;;;4990701;28;20042;-61
2022/09/03 02:52:08;;;;;;;6.47;2.42;;;;;;;;;;4992079;28;20058;-62
2022/09/03 02:54:38;;;;;;;4.10;2.33;;;;;;;;;;4989297;28;20092;-61
2022/09/03 02:57:05;;;;;;;3.38;2.13;;;;;;;;;;4992430;28;20045;-62
2022/09/03 02:59:30;;;;;;;3.63;2.28;;;;;;;;;;4989245;28;20175;-62
2022/09/03 03:01:56;;;;;;;3.38;2.30;;;;;;;;;;4990591;28;20527;-62
2022/09/03 03:04:22;;;;;;;4.97;2.20;;;;;;;;;;4988888;28;20038;-62
2022/09/03 03:06:49;;;;;;;4.72;2.20;;;;;;;;;;4991795;28;20034;-62
2022/09/03 03:09:15;;;;;;;4.05;2.30;;;;;;;;;;4986194;28;20941;-63
2022/09/03 03:11:41;;;;;;;3.78;2.25;;;;;;;;;;4991607;28;20180;-62
2022/09/03 03:14:06;;;;;;;6.28;2.30;;;;;;;;;;4990160;28;20514;-62
2022/09/03 03:16:31;;;;;;;4.85;2.20;;;;;;;;;;4988998;28;20034;-62
2022/09/03 03:18:57;;;;;;;8.30;2.50;;;;;;;;;;4992497;28;20164;-61
2022/09/03 03:21:23;;;;;;;3.70;2.22;;;;;;;;;;4990371;28;20113;-62
2022/09/03 03:23:48;;;;;;;6.03;2.22;;;;;;;;;;4992506;28;20053;-61
2022/09/03 03:26:17;;;;;;;4.25;2.00;;;;;;;;;;4989506;28;20955;-62
2022/09/03 03:28:43;;;;;;;3.70;2.30;;;;;;;;;;4992093;28;20117;-61
2022/09/03 03:31:11;;;;;;;4.65;2.28;;;;;;;;;;4988907;28;20125;-61
2022/09/03 03:33:37;;;;;;;3.15;2.03;;;;;;;;;;4989963;28;20942;-61
2022/09/03 03:36:13;;;;;;;3.63;2.55;;;;;;;;;;4989160;28;20058;-61
2022/09/03 03:38:41;;;;;;;3.13;2.10;;;;;;;;;;4977947;28;20030;-61
2022/09/03 03:41:12;;;;;;;4.65;2.20;;;;;;;;;;4990095;28;20387;-61
2022/09/03 03:43:38;;;;;;;;;;;;;;;;;;4990793;28;20509;-59
2022/09/03 03:46:04;;;;;;;3.58;2.05;;;;;;;;;;4989297;28;20012;-62
2022/09/03 03:48:30;;;;;;;3.00;2.10;;;;;;;;;;4989613;28;20038;-62
2022/09/03 03:51:00;;;;;;;3.70;2.10;;;;;;;;;;4989820;28;20050;-62
2022/09/03 03:53:25;;;;;;;4.47;2.00;;;;;;;;;;4989503;28;20057;-62
2022/09/03 03:56:02;;;;;;;2.70;2.22;;;;;;;;;;4990619;28;20077;-60
2022/09/03 03:58:30;;;;;;;3.20;2.30;;;;;;;;;;4989277;28;20036;-62
2022/09/03 04:01:06;;;;;;;4.32;2.20;;;;;;;;;;4987203;28;20033;-62
2022/09/03 04:03:32;;;;;;;2.38;2.00;;;;;;;;;;4985803;28;20043;-62
2022/09/03 04:05:59;;;;;;;3.92;2.15;;;;;;;;;;4987819;28;20030;-61
2022/09/03 04:08:28;;;;;;;7.28;2.30;;;;;;;;;;4986784;28;20545;-60
2022/09/03 04:10:58;;;;;;;6.28;2.30;;;;;;;;;;4991431;28;20034;-60
2022/09/03 04:13:23;;;;;;;3.38;2.25;;;;;;;;;;4989763;28;20438;-60
2022/09/03 04:15:48;;;;;;;6.65;2.50;;;;;;;;;;4989165;28;20034;-61
2022/09/03 04:18:14;;;;;;;8.20;2.50;;;;;;;;;;4988539;28;20042;-62
2022/09/03 04:20:39;;;;;;;5.25;2.42;;;;;;;;;;4989448;28;20486;-61
2022/09/03 04:23:05;;;;;;;4.22;2.45;;;;;;;;;;4988371;28;20039;-60
2022/09/03 04:25:31;;;;;;;3.28;2.20;;;;;;;;;;4990368;28;20034;-60
2022/09/03 04:27:56;;;;;;;4.43;2.42;;;;;;;;;;4989801;28;20037;-60
2022/09/03 04:30:22;;;;;;;5.60;2.30;;;;;;;;;;4989775;28;20492;-61
2022/09/03 04:32:53;;;;;;;3.15;2.10;;;;;;;;;;4989004;28;20045;-60
2022/09/03 04:35:24;;;;;;;3.10;2.45;;;;;;;;;;4983295;28;20368;-60
2022/09/03 04:37:50;;;;;;;;;;;;;;;;;;4989772;28;20031;-60
2022/09/03 04:40:16;;;;;;;3.45;2.42;;;;;;;;;;4989920;28;20044;-61
2022/09/03 04:42:41;;;;;;;7.10;2.30;;;;;;;;;;4988616;28;20051;-60
2022/09/03 04:45:07;;;;;;;3.42;2.42;;;;;;;;;;4993365;28;20030;-61
2022/09/03 04:47:35;;;;;;;3.05;2.20;;;;;;;;;;4991374;28;20475;-61
2022/09/03 04:50:00;;;;;;;3.63;2.42;;;;;;;;;;4994951;28;20162;-62
2022/09/03 04:52:28;;;;;;;6.78;2.63;;;;;;;;;;4993593;28;20445;-62
2022/09/03 04:54:54;;;;;;;5.10;2.50;;;;;;;;;;4976933;28;20023;-62
2022/09/03 04:57:20;;;;;;;3.83;2.55;;;;;;;;;;4991070;28;20125;-62
2022/09/03 04:59:46;;;;;;;7.95;3.58;;;;;;;;;;4992063;28;20097;-60
2022/09/03 05:02:11;;;;;;;5.22;2.47;;;;;;;;;;4986995;28;20038;-60
2022/09/03 05:04:37;;;;;;;3.58;2.22;;;;;;;;;;4991495;28;20033;-63
2022/09/03 05:07:02;;;;;;;3.50;2.28;;;;;;;;;;4994472;28;20038;-62
2022/09/03 05:09:28;;;;;;;5.28;2.53;;;;;;;;;;4993530;28;20030;-61
2022/09/03 05:11:53;;;;;;;2.28;2.00;;;;;;;;;;4992382;28;20085;-60
2022/09/03 05:14:19;;;;;;;5.60;2.30;;;;;;;;;;4992114;28;20065;-62
2022/09/03 05:16:44;;;;;;;3.28;2.33;;;;;;;;;;4991852;28;20034;-61
2022/09/03 05:19:11;;;;;;;6.47;2.45;;;;;;;;;;4992788;28;20038;-61
2022/09/03 05:21:37;;;;;;;4.68;2.50;;;;;;;;;;4989989;28;20136;-61
2022/09/03 05:24:02;;;;;;;3.90;2.40;;;;;;;;;;4992836;28;20420;-61
2022/09/03 05:26:31;;;;;;;5.28;2.92;;;;;;;;;;4992307;28;20030;-62
2022/09/03 05:28:59;;;;;;;4.63;2.30;;;;;;;;;;4993118;28;20049;-61
2022/09/03 05:31:26;;;;;;;4.60;2.50;;;;;;;;;;4987942;28;20049;-62
2022/09/03 05:33:58;;;;;;;5.45;2.40;;;;;;;;;;4993397;28;20033;-61
2022/09/03 05:36:26;;;;;;;4.50;2.50;;;;;;;;;;4992669;28;20472;-61
2022/09/03 05:38:55;;;;;;;3.10;2.40;;;;;;;;;;4993649;28;20031;-61
2022/09/03 05:41:22;;;;;;;4.65;2.22;;;;;;;;;;4992455;28;20117;-61
2022/09/03 05:43:54;;;;;;;3.67;2.42;;;;;;;;;;4990399;28;20097;-60
2022/09/03 05:46:28;;;;;;;3.25;2.35;;;;;;;;;;4990137;28;20041;-63
2022/09/03 05:48:54;;;;;;;7.40;2.42;;;;;;;;;;4993219;28;20233;-60
2022/09/03 05:51:20;;;;;;;3.95;2.40;;;;;;;;;;4993674;28;20034;-60
2022/09/03 05:53:47;;;;;;;7.10;2.33;;;;;;;;;;4993310;28;20034;-62
2022/09/03 05:56:23;;;;;;;6.57;2.50;;;;;;;;;;4993513;28;20041;-60
2022/09/03 05:58:51;;;;;;;3.22;2.10;;;;;;;;;;4991840;28;20085;-60
2022/09/03 06:01:22;;;;;;;3.88;2.25;;;;;;;;;;4993370;28;20034;-61
2022/09/03 06:04:01;;;;;;;4.53;2.42;;;;;;;;;;4983223;28;20038;-61
2022/09/03 06:06:28;;;;;;;3.60;2.20;;;;;;;;;;4993368;28;20120;-60
2022/09/03 06:08:57;;;;;;;3.13;2.20;;;;;;;;;;4993594;28;20049;-62
2022/09/03 06:11:34;;;;;;;4.57;2.58;;;;;;;;;;4993925;28;20426;-60
2022/09/03 06:14:01;;;;;;;6.07;2.33;;;;;;;;;;4992560;28;20498;-61
2022/09/03 06:16:28;;;;;;;4.30;2.35;;;;;;;;;;4993069;28;20077;-63
2022/09/03 06:18:54;;;;;;;4.70;2.40;;;;;;;;;;4991363;28;20030;-61
2022/09/03 06:21:20;;;;;;;4.22;2.50;;;;;;;;;;4991739;28;20035;-62
2022/09/03 06:23:52;;;;;;;4.35;2.55;;;;;;;;;;4991020;28;20027;-61
2022/09/03 06:26:19;;;;;;;6.32;2.60;;;;;;;;;;4993805;28;20038;-61
2022/09/03 06:28:47;;;;;;;4.28;2.40;;;;;;;;;;4991471;28;20172;-62
2022/09/03 06:31:15;;;;;;;7.53;2.30;;;;;;;;;;4993208;28;20045;-61
2022/09/03 06:33:43;;;;;;;6.40;2.50;;;;;;;;;;4991543;28;20057;-61
2022/09/03 06:36:14;;;;;;;4.88;2.45;;;;;;;;;;4992081;28;20030;-62
2022/09/03 06:38:41;;;;;;;4.90;2.38;;;;;;;;;;4992950;28;20026;-61
2022/09/03 06:41:10;;;;;;;7.07;2.50;;;;;;;;;;4989740;28;20065;-62
2022/09/03 06:43:38;;;;;;;7.20;2.65;;;;;;;;;;4992489;28;20036;-61
2022/09/03 06:46:11;;;;;;;5.28;2.60;;;;;;;;;;4991188;28;20038;-61
2022/09/03 06:48:38;;;;;;;3.25;2.40;;;;;;;;;;4991402;28;20030;-61
2022/09/03 06:51:07;;;;;;;5.68;2.42;;;;;;;;;;4988533;28;20038;-60
2022/09/03 06:53:36;;;;;;;4.70;2.40;;;;;;;;;;4989257;28;20042;-61
2022/09/03 06:56:04;;;;;;;4.22;2.63;;;;;;;;;;4991969;28;20034;-60
2022/09/03 06:58:41;;;;;;;5.38;2.30;;;;;;;;;;4990569;28;20034;-62
2022/09/03 07:01:09;;;;;;;4.45;2.47;;;;;;;;;;4991488;28;20026;-62
2022/09/03 07:03:36;;;;;;;4.45;2.50;;;;;;;;;;4991178;28;20038;-63
2022/09/03 07:06:10;;;;;;;7.18;2.40;;;;;;;;;;4991980;28;20069;-62
2022/09/03 07:08:35;;;;;;;3.72;2.42;;;;;;;;;;4992453;28;20046;-63
2022/09/03 07:11:05;;;;;;;6.63;2.50;;;;;;;;;;4990063;28;20445;-61
2022/09/03 07:13:32;;;;;;;5.05;2.67;;;;;;;;;;4991703;28;20079;-63
2022/09/03 07:15:59;;;;;;;3.45;2.33;;;;;;;;;;4990684;28;20121;-62
2022/09/03 07:18:25;;;;;;;5.03;2.20;;;;;;;;;;4992798;28;20038;-62
2022/09/03 07:20:50;;;;;;;2.65;2.03;;;;;;;;;;4991259;28;20391;-62
2022/09/03 07:23:17;;;;;;;4.20;2.50;;;;;;;;;;4988671;28;20050;-60
2022/09/03 07:25:42;;;;;;;5.40;2.10;;;;;;;;;;4990853;28;20045;-62
2022/09/03 07:28:08;;;;;;;5.78;2.20;;;;;;;;;;4992626;28;20030;-61
2022/09/03 07:30:33;;;;;;;5.15;2.40;;;;;;;;;;4990825;28;20031;-62
2022/09/03 07:33:02;;;;;;;7.68;2.42;;;;;;;;;;4990376;28;20034;-62
2022/09/03 07:35:28;;;;;;;8.25;2.35;;;;;;;;;;4990478;28;20372;-63
2022/09/03 07:37:54;;;;;;;4.78;2.20;;;;;;;;;;4992000;28;20434;-62
2022/09/03 07:40:19;;;;;;;2.95;2.10;;;;;;;;;;4992147;28;20034;-62
2022/09/03 07:42:47;;;;;;;6.13;2.47;;;;;;;;;;4988596;28;20113;-62
2022/09/03 07:45:13;;;;;;;6.97;2.50;;;;;;;;;;4992427;28;20089;-61
2022/09/03 07:47:46;;;;;;;3.65;2.10;;;;;;;;;;4986552;28;20034;-63
2022/09/03 07:50:11;;;;;;;5.47;2.30;;;;;;;;;;4990917;28;20034;-61
2022/09/03 07:52:37;;;;;;;4.20;2.03;;;;;;;;;;4986199;28;20471;-60
2022/09/03 07:55:03;;;;;;;3.35;2.28;;;;;;;;;;4991626;28;20113;-61
2022/09/03 07:57:29;;;;;;;7.15;2.20;;;;;;;;;;4991364;28;20053;-61
2022/09/03 07:59:54;;;;;;;2.92;2.10;;;;;;;;;;4990657;28;20245;-61
2022/09/03 08:02:20;;;;;;;3.90;2.10;;;;;;;;;;4991141;28;20453;-62
2022/09/03 08:04:45;;;;;;;3.60;2.10;;;;;;;;;;4990888;28;20031;-60
2022/09/03 08:07:11;;;;;;;3.60;2.20;;;;;;;;;;4991448;28;20097;-61
2022/09/03 08:09:37;;;;;;;10.23;2.30;;;;;;;;;;4989267;28;20035;-60
2022/09/03 08:12:03;;;;;;;4.05;2.30;;;;;;;;;;4990727;28;20030;-60
2022/09/03 08:14:30;;;;;;;6.85;2.50;;;;;;;;;;4991513;28;20035;-60
2022/09/03 08:16:58;;;;;;;4.22;2.28;;;;;;;;;;4988928;28;20030;-60
2022/09/03 08:19:24;;;;;;;4.03;2.10;;;;;;;;;;4994696;28;20026;-61
2022/09/03 08:21:49;;;;;;;8.63;2.47;;;;;;;;;;4993513;28;20034;-62
2022/09/03 08:24:19;;;;;;;5.78;2.30;;;;;;;;;;4984039;28;20109;-62
2022/09/03 08:26:45;;;;;;;2.85;2.13;;;;;;;;;;4993309;28;20161;-61
2022/09/03 08:29:10;;;;;;;3.78;2.30;;;;;;;;;;4994879;28;20113;-61
2022/09/03 08:31:36;;;;;;;5.32;2.10;;;;;;;;;;4994124;28;20037;-61
2022/09/03 08:34:05;;;;;;;5.00;1.98;;;;;;;;;;4995534;28;20030;-62
2022/09/03 08:36:33;;;;;;;6.30;2.20;;;;;;;;;;4992463;28;20034;-62
2022/09/03 08:39:03;;;;;;;9.43;3.88;;;;;;;;;;4993733;28;20088;-62
2022/09/03 08:41:54;;;;;;;6.53;2.10;;;;;;;;;;4993899;28;20034;-62
2022/09/03 08:44:47;;;;;;;3.50;1.90;;;;;;;;;;4994941;28;20042;-64
2022/09/03 08:47:27;;;;;;;4.90;1.90;;;;;;;;;;4992778;28;20530;-62
2022/09/03 08:50:01;;;;;;;4.97;1.75;;;;;;;;;;4994210;28;20034;-63
2022/09/03 08:52:47;;;;;;;2.83;1.90;;;;;;;;;;4994065;28;20039;-61
2022/09/03 08:55:28;;;;;;;4.40;1.70;;;;;;;;;;4994317;28;20053;-60
2022/09/03 08:58:24;;;;;;;2.38;1.70;;;;;;;;;;4993406;28;20097;-61
2022/09/03 09:01:00;;;;;;;3.58;1.80;;;;;;;;;;4992617;28;20460;-62
2022/09/03 09:03:47;;;;;;;3.50;1.70;;;;;;;;;;4995461;28;20026;-62
2022/09/03 09:06:12;;;;;;;5.88;1.80;;;;;;;;;;4993237;28;20034;-62
2022/09/03 09:09:13;;;;;;;4.85;1.90;;;;;;;;;;4993701;28;20038;-63
2022/09/03 09:11:41;;;;;;;7.85;2.00;;;;;;;;;;4989824;28;20034;-61
2022/09/03 09:14:27;;;;;;;4.53;1.60;;;;;;;;;;4993887;28;20077;-61
2022/09/03 09:17:17;;;;;;;3.10;1.80;;;;;;;;;;4993928;28;20054;-61
2022/09/03 09:20:10;;;;;;;2.22;1.73;;;;;;;;;;4992954;28;20391;-61
2022/09/03 09:22:49;;;;;;;3.85;1.73;;;;;;;;;;4993174;28;20038;-63
2022/09/03 09:25:21;;;;;;;6.53;1.80;;;;;;;;;;4992610;28;20038;-61
2022/09/03 09:27:51;;;;;;;4.93;1.70;;;;;;;;;;4993161;28;20052;-61
2022/09/03 09:30:18;;;;;;;3.38;1.75;;;;;;;;;;4993743;28;20031;-62
2022/09/03 09:32:46;;;;;;;4.45;1.80;;;;;;;;;;4990321;28;20030;-63
2022/09/03 09:35:12;;;;;;;5.63;1.80;;;;;;;;;;4992863;28;20035;-62
2022/09/03 09:37:52;;;;;;;2.55;1.63;;;;;;;;;;4994028;28;20084;-62
2022/09/03 09:40:32;;;;;;;5.20;1.70;;;;;;;;;;4993230;28;20030;-61
2022/09/03 09:43:12;;;;;;;2.08;1.60;;;;;;;;;;4990174;28;20079;-62
2022/09/03 09:45:40;;;;;;;3.15;1.80;;;;;;;;;;4994042;28;20030;-62
2022/09/03 09:48:17;;;;;;;5.03;1.77;;;;;;;;;;4992407;28;20085;-61
2022/09/03 09:50:43;;;;;;;4.13;1.63;;;;;;;;;;4992894;28;20038;-62
2022/09/03 09:53:16;;;;;;;2.60;1.70;;;;;;;;;;4994044;28;20434;-62
2022/09/03 09:55:49;;;;;;;4.90;1.70;;;;;;;;;;4991493;28;20062;-62
2022/09/03 09:58:18;;;;;;;2.25;1.75;;;;;;;;;;4993487;28;20034;-62
2022/09/03 10:01:02;;;;;;;3.05;1.70;;;;;;;;;;4992505;28;20044;-62
2022/09/03 10:03:34;;;;;;;2.30;1.70;;;;;;;;;;4974877;28;20027;-62
2022/09/03 10:09:07;;;;;;;6.43;1.85;;;;;;;;;;4978572;28;20044;-62
2022/09/03 10:11:35;;;;;;;5.68;1.80;;;;;;;;;;4991994;28;20378;-61
2022/09/03 10:14:03;;;;;;;3.03;1.80;;;;;;;;;;4993324;28;20031;-62
2022/09/03 10:16:35;;;;;;;5.82;1.90;;;;;;;;;;4986313;28;20041;-62
2022/09/03 10:19:10;;;;;;;2.30;1.80;;;;;;;;;;4987967;28;20066;-62
2022/09/03 10:22:04;;;;;;;2.30;1.90;;;;;;;;;;4992494;28;20045;-62
2022/09/03 10:24:55;;;;;;;4.00;1.95;;;;;;;;;;4992214;28;20042;-62
2022/09/03 10:27:22;;;;;;;;;;;;;;;;;;4993423;28;20102;-62
2022/09/03 10:29:48;;;;;;;3.50;2.00;;;;;;;;;;4991801;28;19917;-62
2022/09/03 10:32:32;;;;;;;3.92;1.80;;;;;;;;;;4992502;28;20030;-62
2022/09/03 10:35:09;;;;;;;3.17;2.00;;;;;;;;;;4990257;28;20062;-63
2022/09/03 10:37:43;;;;;;;3.58;1.80;;;;;;;;;;4989894;28;20026;-62
2022/09/03 10:40:31;;;;;;;7.38;2.10;;;;;;;;;;4993332;28;20032;-62
2022/09/03 10:43:20;;;;;;;2.92;2.03;;;;;;;;;;4991738;28;20093;-62
2022/09/03 10:45:58;;;;;;;2.42;1.80;;;;;;;;;;4988611;28;20534;-62
2022/09/03 10:49:09;;;;;;;5.70;1.90;;;;;;;;;;4993526;28;20034;-62
2022/09/03 10:51:45;;;;;;;2.63;1.98;;;;;;;;;;4992494;28;20038;-62
2022/09/03 10:54:47;;;;;;;3.85;1.92;;;;;;;;;;4992867;28;20038;-61
2022/09/03 10:57:39;;;;;;;3.10;1.90;;;;;;;;;;4989371;28;20057;-63
2022/09/03 11:00:17;;;;;;;4.25;2.15;;;;;;;;;;4992294;28;20050;-63
2022/09/03 11:03:37;;;;;;;3.75;1.77;;;;;;;;;;4990696;28;20092;-65
2022/09/03 11:06:27;;;;;;;4.88;2.05;;;;;;;;;;4988084;28;20046;-63
2022/09/03 11:09:37;;;;;;;5.30;1.95;;;;;;;;;;4971903;28;20047;-64
2022/09/03 11:12:20;;;;;;;5.57;1.95;;;;;;;;;;4980225;28;20042;-64
2022/09/03 11:14:55;;;;;;;5.35;2.30;;;;;;;;;;4991041;28;20042;-64
2022/09/03 11:17:32;;;;;;;2.83;2.15;;;;;;;;;;4992157;28;20030;-63
2022/09/03 11:20:19;;;;;;;2.05;1.70;;;;;;;;;;4987981;28;20030;-66
2022/09/03 11:22:47;;;;;;;3.33;1.95;;;;;;;;;;4992080;28;20040;-67
2022/09/03 11:25:14;;;;;;;3.42;2.00;;;;;;;;;;4991103;28;20391;-65
2022/09/03 11:27:39;;;;;;;2.83;1.75;;;;;;;;;;4992825;28;20030;-66
2022/09/03 11:30:14;;;;;;;3.42;1.77;;;;;;;;;;4990850;28;20459;-63
2022/09/03 11:32:42;;;;;;;4.45;1.90;;;;;;;;;;4991107;28;20113;-65
2022/09/03 11:35:28;;;;;;;3.47;2.05;;;;;;;;;;4991921;28;20475;-64
2022/09/03 11:38:01;;;;;;;5.95;2.10;;;;;;;;;;4990140;28;20030;-64
2022/09/03 11:40:37;;;;;;;3.40;1.90;;;;;;;;;;4991553;28;20052;-64
2022/09/03 11:43:27;;;;;;;2.50;1.95;;;;;;;;;;4986123;28;20109;-64
2022/09/03 11:46:12;;;;;;;3.58;2.00;;;;;;;;;;4978390;28;20034;-64
2022/09/03 11:48:38;;;;;;;3.85;2.05;;;;;;;;;;4992123;28;20124;-65
2022/09/03 11:51:16;;;;;;;5.45;2.10;;;;;;;;;;4988479;28;20507;-64
2022/09/03 11:54:00;;;;;;;5.45;2.03;;;;;;;;;;4987448;28;20068;-65
2022/09/03 11:56:27;;;;;;;7.45;2.10;;;;;;;;;;4988646;28;20114;-64
2022/09/03 11:59:13;;;;;;;5.00;1.90;;;;;;;;;;4987641;28;20046;-65
2022/09/03 12:01:43;;;;;;;2.40;1.77;;;;;;;;;;4989996;28;20074;-64
2022/09/03 12:04:14;;;;;;;2.83;2.00;;;;;;;;;;4989305;28;20110;-63
2022/09/03 12:07:11;;;;;;;3.00;2.00;;;;;;;;;;4990292;28;20089;-64
2022/09/03 12:10:07;;;;;;;3.67;2.05;;;;;;;;;;4983873;28;20391;-62
2022/09/03 12:12:53;;;;;;;3.25;1.80;;;;;;;;;;4990394;28;20443;-63
2022/09/03 12:15:36;;;;;;;2.28;2.00;;;;;;;;;;4987179;28;20039;-65
2022/09/03 12:18:21;;;;;;;3.92;2.00;;;;;;;;;;4980743;28;20039;-64
2022/09/03 12:21:00;;;;;;;5.97;2.25;;;;;;;;;;4972205;28;20039;-66
2022/09/03 12:23:33;;;;;;;3.72;2.08;;;;;;;;;;4990468;28;20042;-63
2022/09/03 12:26:03;;;;;;;4.18;1.80;;;;;;;;;;4990480;28;20034;-64
2022/09/03 12:28:29;;;;;;;3.08;2.05;;;;;;;;;;4990343;28;20045;-64
2022/09/03 12:31:11;;;;;;;2.10;1.90;;;;;;;;;;4987923;28;20043;-63
2022/09/03 12:33:40;;;;;;;3.95;2.00;;;;;;;;;;4989799;28;20030;-64
2022/09/03 12:36:08;;;;;;;3.22;1.90;;;;;;;;;;4988987;28;20189;-63
2022/09/03 12:38:34;;;;;;;2.10;1.90;;;;;;;;;;4989185;28;20373;-64
2022/09/03 12:40:59;;;;;;;5.20;1.90;;;;;;;;;;4986868;28;20028;-63
2022/09/03 12:43:28;;;;;;;7.47;1.90;;;;;;;;;;4990936;28;20042;-63
2022/09/03 12:45:54;;;;;;;3.50;1.80;;;;;;;;;;4987662;28;20085;-63
2022/09/03 12:48:20;;;;;;;3.13;2.00;;;;;;;;;;4991707;28;20484;-63
2022/09/03 12:50:48;;;;;;;2.65;1.92;;;;;;;;;;4988665;28;20391;-65
2022/09/03 12:53:23;;;;;;;6.63;1.90;;;;;;;;;;4989346;28;20454;-63
2022/09/03 12:55:52;;;;;;;3.45;1.90;;;;;;;;;;4989280;28;20038;-65
2022/09/03 12:58:25;;;;;;;2.17;1.80;;;;;;;;;;4990088;28;20471;-65
2022/09/03 13:01:03;;;;;;;2.30;1.90;;;;;;;;;;4986064;28;20054;-63
2022/09/03 13:03:37;;;;;;;2.30;1.88;;;;;;;;;;4990987;28;20081;-63
2022/09/03 13:06:09;;;;;;;4.13;1.77;;;;;;;;;;4986660;28;20065;-64
2022/09/03 13:08:47;;;;;;;2.85;1.70;;;;;;;;;;4994809;28;20026;-63
2022/09/03 13:11:18;;;;;;;5.07;1.80;;;;;;;;;;4985348;28;20119;-64
2022/09/03 13:14:00;;;;;;;2.20;1.80;;;;;;;;;;4991406;28;20129;-64
2022/09/03 13:16:45;;;;;;;4.18;1.95;;;;;;;;;;4992975;28;20077;-64
2022/09/03 13:19:25;;;;;;;5.65;1.92;;;;;;;;;;4983546;28;20026;-63
2022/09/03 13:22:00;;;;;;;2.45;1.83;;;;;;;;;;4988009;28;20042;-66
2022/09/03 13:24:44;;;;;;;3.58;2.28;;;;;;;;;;4995288;28;20042;-63
2022/09/03 13:27:40;;;;;;;3.17;1.95;;;;;;;;;;4991171;28;20070;-62
2022/09/03 13:30:16;;;;;;;3.90;2.10;;;;;;;;;;4991282;28;20058;-63
2022/09/03 13:33:02;;;;;;;6.05;2.10;;;;;;;;;;4992758;28;20468;-64
2022/09/03 13:35:41;;;;;;;4.32;1.98;;;;;;;;;;4990254;28;20058;-63
2022/09/03 13:38:07;;;;;;;3.63;2.30;;;;;;;;;;4992505;28;20129;-63
2022/09/03 13:41:18;;;;;;;2.92;2.00;;;;;;;;;;4993248;28;20081;-62
2022/09/03 13:43:52;;;;;;;2.45;1.90;;;;;;;;;;4993683;28;20034;-63
2022/09/03 13:46:30;;;;;;;4.03;1.90;;;;;;;;;;4994138;28;20121;-63
2022/09/03 13:51:58;;;;;;;5.68;1.95;;;;;;;;;;4990162;28;20105;-64
2022/09/03 13:54:26;;;;;;;2.58;2.00;;;;;;;;;;4991816;28;20329;-64
2022/09/03 13:57:08;;;;;;;4.30;2.38;;;;;;;;;;4993347;28;20030;-64
2022/09/03 14:00:04;;;;;;;3.60;2.05;;;;;;;;;;4991928;28;20066;-64
2022/09/03 14:02:50;;;;;;;3.05;2.10;;;;;;;;;;4980916;28;20042;-64
2022/09/03 14:05:31;;;;;;;5.30;1.90;;;;;;;;;;4993671;28;20081;-64
2022/09/03 14:08:17;;;;;;;4.57;2.10;;;;;;;;;;4993592;28;20050;-64
2022/09/03 14:11:21;;;;;;;3.55;2.00;;;;;;;;;;4986270;28;20456;-64
2022/09/03 14:14:41;;;;;;;2.25;1.90;;;;;;;;;;4964157;28;20050;-65
2022/09/03 14:17:13;;;;;;;5.53;2.55;;;;;;;;;;4929156;29;20175;-65
2022/09/03 14:19:56;;;;;;;3.85;2.20;;;;;;;;;;4984013;28;20476;-64
2022/09/03 14:22:28;;;;;;;5.85;1.92;;;;;;;;;;4984289;28;20496;-63
2022/09/03 14:25:10;;;;;;;4.20;2.22;;;;;;;;;;4990380;28;20065;-64
2022/09/03 14:27:35;;;;;;;4.65;2.30;;;;;;;;;;4988583;28;20038;-64
2022/09/03 14:30:05;;;;;;;3.38;1.90;;;;;;;;;;4989866;28;20029;-64
2022/09/03 14:32:33;;;;;;;;;;;;;;;;;;4992996;28;20030;-64
2022/09/03 14:35:17;;;;;;;6.28;2.00;;;;;;;;;;4992566;28;19993;-64
2022/09/03 14:37:57;;;;;;;3.22;1.80;;;;;;;;;;4980456;28;20042;-64
2022/09/03 14:40:43;;;;;;;3.55;2.15;;;;;;;;;;4993005;28;20034;-64
2022/09/03 14:43:15;;;;;;;4.78;1.95;;;;;;;;;;4990680;28;20045;-65
2022/09/03 14:46:07;;;;;;;4.35;2.17;;;;;;;;;;4990579;28;20034;-66
2022/09/03 14:48:54;;;;;;;6.28;2.17;;;;;;;;;;4987210;28;20428;-65
2022/09/03 14:51:44;;;;;;;3.15;2.50;;;;;;;;;;4989587;28;20434;-64
2022/09/03 14:54:43;;;;;;;3.83;2.38;;;;;;;;;;4988964;28;20026;-64
2022/09/03 14:57:27;;;;;;;4.90;2.38;;;;;;;;;;4990883;28;20037;-67
2022/09/03 15:00:12;;;;;;;3.63;2.40;;;;;;;;;;4989803;28;20050;-64
2022/09/03 15:02:57;;;;;;;5.18;2.40;;;;;;;;;;4990774;28;20391;-64
2022/09/03 15:05:52;;;;;;;3.40;2.33;;;;;;;;;;4981230;28;20030;-66
2022/09/03 15:08:42;;;;;;;3.08;2.55;;;;;;;;;;4990457;28;20073;-64
2022/09/03 15:11:17;;;;;;;3.28;2.40;;;;;;;;;;4989858;28;20360;-65
2022/09/03 15:13:51;;;;;;;2.95;2.20;;;;;;;;;;4991910;28;20121;-64
2022/09/03 15:16:24;;;;;;;3.97;2.20;;;;;;;;;;4991253;28;20041;-64
2022/09/03 15:19:04;;;;;;;5.35;2.60;;;;;;;;;;4991591;28;20026;-64
2022/09/03 15:21:39;;;;;;;5.00;2.35;;;;;;;;;;4991226;28;20038;-65
2022/09/03 15:24:42;;;;;;;3.78;2.20;;;;;;;;;;4988843;28;20030;-65
2022/09/03 15:27:31;;;;;;;3.10;2.25;;;;;;;;;;4987595;28;20034;-66
2022/09/03 15:30:06;;;;;;;3.25;2.47;;;;;;;;;;4990536;28;20082;-65
2022/09/03 15:33:27;;;;;;;3.30;2.28;;;;;;;;;;4991952;28;20046;-64